H. Lee White — WZD2465 — position and weather

sailwx.info

Track history (hours):
 
Tides and Currents Weather Stations Pressure Air Temp Water Temp Dewpoint Dewpoint Depression Visibility Wind Speed Wind Dir Waves Ship Positions

H. Lee White

Owner: AMERICAN STEAMSHIP COMPANY, WILLIAMSVILLE, NY. More information available from US FCC via Universal Licensing System and Coast Guard Vessel Documentation Center.

Last reported at 2018-Jan-06 18:00 UTC. Time now 2018-Jan-18 02:23 UTC.
Position N 47°06' W 087°18'.
Warning: this ship's position is 11 days out of date.

Length 214 m; draft 8.5 m.

Type: Cargo ship. MMSI: 366938770.

Wind at 2 knots

Barometer 1032.1 mb
Air temperature -11.1 ° C
Visibility: greater than 10.8 NM

Date/timePositionNaut miles runAvg speedWind from/ knotsBaromVisibWave heightAir tempDewpointWater temp
2018-Jan-06 18:00N 47°06' W 087°18'1514.5 1032.110.8 -11.1
2018-Jan-06 17:00N 47°18' W 087°30'16910.6 250 / 111032.810.8 -11.1
2018-Jan-06 01:03N 47°01' W 091°37'111.7
2018-Jan-06 00:59N 47°01' W 091°38'2 3.4
2018-Jan-06 00:31N 47°01' W 091°40'0 0.0
2018-Jan-05 19:32N 47°01' W 091°40'0 0.0
2018-Jan-05 19:22N 47°01' W 091°40'0 0.0
2018-Jan-05 19:00N 47°01' W 091°40'0 0.0
2018-Jan-05 18:23N 47°01' W 091°40'0 0.0
2018-Jan-05 17:57N 47°01' W 091°40'0 0.0
2018-Jan-05 17:13N 47°01' W 091°40'0 0.0
2018-Jan-05 16:55N 47°01' W 091°40'0 0.0
2018-Jan-05 16:30N 47°01' W 091°40'0 0.0
2018-Jan-05 16:00N 47°01' W 091°40'0 0.0
2018-Jan-05 15:18N 47°01' W 091°40'0 0.0
2018-Jan-05 15:00N 47°01' W 091°40'0 0.0
2018-Jan-05 13:17N 47°01' W 091°40'0 0.0
2018-Jan-05 12:56N 47°01' W 091°40'0 0.0
2018-Jan-05 12:15N 47°01' W 091°40'0 0.0
2018-Jan-05 12:00N 47°01' W 091°40'0 0.0
2018-Jan-05 11:30N 47°01' W 091°40'0 0.0
2018-Jan-05 11:00N 47°01' W 091°40'0 0.0
2018-Jan-05 10:31N 47°01' W 091°40'0 0.0
2018-Jan-05 10:00N 47°01' W 091°40'0 0.0
2018-Jan-05 09:31N 47°01' W 091°40'0 0.3
2018-Jan-05 09:00N 47°01' W 091°40'2 3.3
2018-Jan-05 08:30N 46°59' W 091°41'2 3.7
2018-Jan-05 08:01N 46°57' W 091°41'0 0.9
2018-Jan-05 07:30N 46°57' W 091°42'2 4.0
2018-Jan-05 07:00N 46°56' W 091°44'3 5.7
2018-Jan-05 06:30N 46°54' W 091°47'3 6.3
2018-Jan-05 06:00N 46°53' W 091°51'3 6.3
2018-Jan-05 05:30N 46°51' W 091°55'4 7.1
2018-Jan-05 05:00N 46°49' W 091°59'2 3.6
2018-Jan-05 04:31N 46°47' W 092°00'0 0.1
2018-Jan-05 04:00N 46°47' W 092°00'0 0.1
2018-Jan-05 03:30N 46°47' W 092°00'0 0.0
2018-Jan-05 03:00N 46°47' W 092°00'0 0.1
2018-Jan-05 02:30N 46°47' W 092°00'0 0.0
2018-Jan-05 02:00N 46°47' W 092°00'0 0.0
2018-Jan-05 01:31N 46°47' W 092°00'0 0.0
2018-Jan-05 01:01N 46°47' W 092°00'0 0.0
2018-Jan-05 00:30N 46°47' W 092°00'0 0.1
2018-Jan-05 00:01N 46°47' W 092°00'0 0.1
2018-Jan-04 23:30N 46°47' W 092°00'0 0.1
2018-Jan-04 23:00N 46°47' W 092°00'0 0.0
2018-Jan-04 22:30N 46°47' W 092°00'0 0.0
2018-Jan-04 22:01N 46°47' W 092°00'0 0.2
2018-Jan-04 21:30N 46°48' W 092°00'0 0.1
2018-Jan-04 21:00N 46°48' W 092°00'0 0.0
2018-Jan-04 20:30N 46°48' W 092°00'0 0.0
2018-Jan-04 20:01N 46°48' W 092°00'0 0.0
2018-Jan-04 19:30N 46°48' W 092°00'0 0.0
2018-Jan-04 19:00N 46°48' W 092°00'0 0.1
2018-Jan-04 18:30N 46°48' W 092°00'0 0.1
2018-Jan-04 18:00N 46°48' W 092°00'1 2.8
2018-Jan-04 17:30N 46°48' W 091°59'510.0
2018-Jan-04 17:00N 46°51' W 091°52'5 9.3
2018-Jan-04 16:30N 46°54' W 091°47'4 8.9
2018-Jan-04 16:00N 46°56' W 091°41'201 9.1
2018-Jan-03 18:00N 48°30' W 087°18'   360 / 221017.9 2.2 -17.2 14.9
2017-Dec-31 15:22N 45°38' W 083°37'610.7
2017-Dec-31 14:51N 45°34' W 083°33'310.0
2017-Dec-31 14:30N 45°31' W 083°30'  
Track history (hours):
 
Tides and Currents Weather Stations Pressure Air Temp Water Temp Dewpoint Dewpoint Depression Visibility Wind Speed Wind Dir Waves Ship Positions

H. Lee White

Owner: AMERICAN STEAMSHIP COMPANY, WILLIAMSVILLE, NY. More information available from US FCC via Universal Licensing System and Coast Guard Vessel Documentation Center.

Last reported at 2018-Jan-06 18:00 UTC. Time now 2018-Jan-18 02:23 UTC.
Position N 47°06' W 087°18'.
Warning: this ship's position is 11 days out of date.

Length 214 m; draft 8.5 m.

Type: Cargo ship. MMSI: 366938770.

Wind at 2 knots

Barometer 1032.1 mb
Air temperature -11.1 ° C
Visibility: greater than 10.8 NM

Date/timePositionNaut miles runAvg speedWind from/ knotsBaromVisibWave heightAir tempDewpointWater temp
2018-Jan-06 18:00N 47°06' W 087°18'1514.5 1032.110.8 -11.1
2018-Jan-06 17:00N 47°18' W 087°30'16910.6 250 / 111032.810.8 -11.1
2018-Jan-06 01:03N 47°01' W 091°37'111.7
2018-Jan-06 00:59N 47°01' W 091°38'2 3.4
2018-Jan-06 00:31N 47°01' W 091°40'0 0.0
2018-Jan-05 19:32N 47°01' W 091°40'0 0.0
2018-Jan-05 19:22N 47°01' W 091°40'0 0.0
2018-Jan-05 19:00N 47°01' W 091°40'0 0.0
2018-Jan-05 18:23N 47°01' W 091°40'0 0.0
2018-Jan-05 17:57N 47°01' W 091°40'0 0.0
2018-Jan-05 17:13N 47°01' W 091°40'0 0.0
2018-Jan-05 16:55N 47°01' W 091°40'0 0.0
2018-Jan-05 16:30N 47°01' W 091°40'0 0.0
2018-Jan-05 16:00N 47°01' W 091°40'0 0.0
2018-Jan-05 15:18N 47°01' W 091°40'0 0.0
2018-Jan-05 15:00N 47°01' W 091°40'0 0.0
2018-Jan-05 13:17N 47°01' W 091°40'0 0.0
2018-Jan-05 12:56N 47°01' W 091°40'0 0.0
2018-Jan-05 12:15N 47°01' W 091°40'0 0.0
2018-Jan-05 12:00N 47°01' W 091°40'0 0.0
2018-Jan-05 11:30N 47°01' W 091°40'0 0.0
2018-Jan-05 11:00N 47°01' W 091°40'0 0.0
2018-Jan-05 10:31N 47°01' W 091°40'0 0.0
2018-Jan-05 10:00N 47°01' W 091°40'0 0.0
2018-Jan-05 09:31N 47°01' W 091°40'0 0.3
2018-Jan-05 09:00N 47°01' W 091°40'2 3.3
2018-Jan-05 08:30N 46°59' W 091°41'2 3.7
2018-Jan-05 08:01N 46°57' W 091°41'0 0.9
2018-Jan-05 07:30N 46°57' W 091°42'2 4.0
2018-Jan-05 07:00N 46°56' W 091°44'3 5.7
2018-Jan-05 06:30N 46°54' W 091°47'3 6.3
2018-Jan-05 06:00N 46°53' W 091°51'3 6.3
2018-Jan-05 05:30N 46°51' W 091°55'4 7.1
2018-Jan-05 05:00N 46°49' W 091°59'2 3.6
2018-Jan-05 04:31N 46°47' W 092°00'0 0.1
2018-Jan-05 04:00N 46°47' W 092°00'0 0.1
2018-Jan-05 03:30N 46°47' W 092°00'0 0.0
2018-Jan-05 03:00N 46°47' W 092°00'0 0.1
2018-Jan-05 02:30N 46°47' W 092°00'0 0.0
2018-Jan-05 02:00N 46°47' W 092°00'0 0.0
2018-Jan-05 01:31N 46°47' W 092°00'0 0.0
2018-Jan-05 01:01N 46°47' W 092°00'0 0.0
2018-Jan-05 00:30N 46°47' W 092°00'0 0.1
2018-Jan-05 00:01N 46°47' W 092°00'0 0.1
2018-Jan-04 23:30N 46°47' W 092°00'0 0.1
2018-Jan-04 23:00N 46°47' W 092°00'0 0.0
2018-Jan-04 22:30N 46°47' W 092°00'0 0.0
2018-Jan-04 22:01N 46°47' W 092°00'0 0.2
2018-Jan-04 21:30N 46°48' W 092°00'0 0.1
2018-Jan-04 21:00N 46°48' W 092°00'0 0.0
2018-Jan-04 20:30N 46°48' W 092°00'0 0.0
2018-Jan-04 20:01N 46°48' W 092°00'0 0.0
2018-Jan-04 19:30N 46°48' W 092°00'0 0.0
2018-Jan-04 19:00N 46°48' W 092°00'0 0.1
2018-Jan-04 18:30N 46°48' W 092°00'0 0.1
2018-Jan-04 18:00N 46°48' W 092°00'1 2.8
2018-Jan-04 17:30N 46°48' W 091°59'510.0
2018-Jan-04 17:00N 46°51' W 091°52'5 9.3
2018-Jan-04 16:30N 46°54' W 091°47'4 8.9
2018-Jan-04 16:00N 46°56' W 091°41'201 9.1
2018-Jan-03 18:00N 48°30' W 087°18'   360 / 221017.9 2.2 -17.2 14.9
2017-Dec-31 15:22N 45°38' W 083°37'610.7
2017-Dec-31 14:51N 45°34' W 083°33'310.0
2017-Dec-31 14:30N 45°31' W 083°30'  

Dump ship's entire track history